Time;durP1;ratioP1;P1;durP2;ratioP2;P2;SDS_P1;SDS_P2;PMS_P1;PMS_P2;Temp;Humidity;BMP_temperature;BMP_pressure;BME280_temperature;BME280_humidity;BME280_pressure;Samples;Min_cycle;Max_cycle;Signal;HPM_P1;HPM_P2
2022/03/20 00:00:38;;;;;;;1.27;0.70;;;-2.10;66.70;;;;;;5009342;28;20619;-71
2022/03/20 00:03:09;;;;;;;0.77;0.77;;;-2.10;66.80;;;;;;5011153;28;20284;-71
2022/03/20 00:05:38;;;;;;;0.83;0.60;;;-2.10;66.90;;;;;;5009014;28;20211;-72
2022/03/20 00:08:11;;;;;;;1.77;0.60;;;-2.10;66.70;;;;;;5013830;28;20809;-72
2022/03/20 00:10:42;;;;;;;0.63;0.63;;;-2.10;66.70;;;;;;5012696;28;20195;-72
2022/03/20 00:13:09;;;;;;;2.10;0.67;;;-2.10;66.60;;;;;;5010598;28;20200;-72
2022/03/20 00:15:36;;;;;;;1.13;0.90;;;-2.10;66.70;;;;;;5008708;28;20180;-71
2022/03/20 00:18:02;;;;;;;1.30;1.23;;;-2.10;66.60;;;;;;5011187;28;20274;-72
2022/03/20 00:20:32;;;;;;;0.50;0.50;;;-2.10;66.80;;;;;;5013939;28;20268;-71
2022/03/20 00:22:57;;;;;;;1.37;1.27;;;-2.10;67.10;;;;;;5017648;28;20599;-71
2022/03/20 00:25:23;;;;;;;0.90;0.90;;;-2.10;67.00;;;;;;5015741;28;20183;-73
2022/03/20 00:27:49;;;;;;;1.67;1.37;;;-2.10;67.00;;;;;;5013704;28;20219;-71
2022/03/20 00:30:15;;;;;;;0.90;0.87;;;-2.10;67.00;;;;;;5014165;28;20224;-71
2022/03/20 00:32:41;;;;;;;0.63;0.63;;;-2.10;66.90;;;;;;5011271;28;20185;-71
2022/03/20 00:35:07;;;;;;;0.60;0.60;;;-2.10;67.10;;;;;;5011056;28;20564;-72
2022/03/20 00:37:33;;;;;;;3.70;1.27;;;-2.10;67.20;;;;;;5012574;28;20263;-72
2022/03/20 00:39:59;;;;;;;1.97;1.20;;;-2.10;67.20;;;;;;5012952;28;20737;-71
2022/03/20 00:42:26;;;;;;;2.20;1.70;;;-2.10;67.40;;;;;;5010474;28;20183;-72
2022/03/20 00:44:51;;;;;;;1.23;1.17;;;-2.20;67.70;;;;;;5009252;28;20190;-71
2022/03/20 00:47:17;;;;;;;0.73;0.73;;;-2.20;67.60;;;;;;5010209;28;20625;-72
2022/03/20 00:49:43;;;;;;;0.80;0.80;;;-2.20;67.50;;;;;;5012734;28;20272;-72
2022/03/20 00:52:10;;;;;;;1.40;1.33;;;-2.20;67.60;;;;;;5009141;28;20655;-73
2022/03/20 00:54:36;;;;;;;0.70;0.70;;;-2.20;67.60;;;;;;5009514;28;20231;-73
2022/03/20 00:57:01;;;;;;;1.77;0.87;;;-2.30;67.80;;;;;;5013682;28;21678;-72
2022/03/20 00:59:27;;;;;;;0.93;0.90;;;-2.30;67.90;;;;;;5014497;28;20257;-72
2022/03/20 01:01:53;;;;;;;0.63;0.63;;;-2.30;67.80;;;;;;5012369;28;20263;-71
2022/03/20 01:04:19;;;;;;;1.17;1.17;;;-2.30;68.10;;;;;;5014886;28;20290;-71
2022/03/20 01:06:44;;;;;;;0.53;0.53;;;-2.30;68.10;;;;;;5013922;28;20204;-70
2022/03/20 01:09:10;;;;;;;0.83;0.83;;;-2.30;68.10;;;;;;5012750;28;20220;-70
2022/03/20 01:11:38;;;;;;;1.33;1.33;;;-2.30;68.10;;;;;;5012259;28;20180;-71
2022/03/20 01:14:04;;;;;;;1.70;1.33;;;-2.30;68.20;;;;;;5016290;28;20346;-71
2022/03/20 01:16:30;;;;;;;0.73;0.73;;;-2.30;68.20;;;;;;5012247;28;20264;-74
2022/03/20 01:18:56;;;;;;;1.03;1.03;;;-2.40;68.20;;;;;;5016607;28;20291;-72
2022/03/20 01:21:21;;;;;;;1.03;0.80;;;-2.40;68.20;;;;;;5019173;28;20183;-72
2022/03/20 01:23:47;;;;;;;1.00;1.00;;;-2.40;68.30;;;;;;5011882;28;22035;-71
2022/03/20 01:26:13;;;;;;;0.73;0.73;;;-2.40;68.50;;;;;;5020201;28;20601;-71
2022/03/20 01:28:38;;;;;;;0.60;0.60;;;-2.40;68.50;;;;;;5016410;28;20192;-71
2022/03/20 01:31:04;;;;;;;1.50;1.37;;;-2.40;68.50;;;;;;5017351;28;20984;-72
2022/03/20 01:33:30;;;;;;;0.70;0.70;;;-2.40;68.60;;;;;;5015260;28;20196;-72
2022/03/20 01:35:56;;;;;;;0.67;0.67;;;-2.40;68.90;;;;;;5011458;28;20190;-72
2022/03/20 01:38:22;;;;;;;1.80;1.70;;;-2.40;68.90;;;;;;5015135;28;20610;-71
2022/03/20 01:40:49;;;;;;;3.30;1.07;;;-2.50;69.00;;;;;;5015602;28;20267;-72
2022/03/20 01:43:15;;;;;;;1.50;1.40;;;-2.50;69.10;;;;;;5018133;28;20182;-72
2022/03/20 01:45:41;;;;;;;7.97;2.47;;;-2.50;69.20;;;;;;5014015;28;20175;-70
2022/03/20 01:48:07;;;;;;;3.67;1.73;;;-2.50;69.20;;;;;;5015098;28;20196;-71
2022/03/20 01:50:33;;;;;;;4.10;1.80;;;-2.50;69.10;;;;;;5013481;28;20269;-70
2022/03/20 01:53:00;;;;;;;2.27;0.73;;;-2.60;69.00;;;;;;5014186;28;20259;-71
2022/03/20 01:55:27;;;;;;;1.57;1.20;;;-2.70;69.90;;;;;;5017111;28;20196;-71
2022/03/20 01:57:54;;;;;;;2.40;1.20;;;-2.90;70.50;;;;;;5014318;28;20177;-72
2022/03/20 02:00:24;;;;;;;1.20;1.07;;;-3.00;70.80;;;;;;5011735;28;20186;-71
2022/03/20 02:02:51;;;;;;;1.50;1.40;;;-3.10;71.20;;;;;;5012510;28;20211;-71
2022/03/20 02:05:17;;;;;;;0.87;0.87;;;-3.20;71.30;;;;;;5031444;28;20188;-71
2022/03/20 02:07:47;;;;;;;0.83;0.83;;;-3.30;71.60;;;;;;5008199;28;20417;-71
2022/03/20 02:10:15;;;;;;;1.00;0.93;;;-3.40;72.10;;;;;;5015168;28;20208;-71
2022/03/20 02:12:42;;;;;;;1.47;1.47;;;-3.50;72.10;;;;;;5013718;28;20182;-71
2022/03/20 02:15:12;;;;;;;2.23;1.10;;;-3.50;72.20;;;;;;5015118;28;20188;-71
2022/03/20 02:17:43;;;;;;;0.80;0.80;;;-3.60;72.20;;;;;;5043514;28;20670;-71
2022/03/20 02:20:10;;;;;;;2.40;1.23;;;-3.70;72.60;;;;;;5011078;28;20216;-72
2022/03/20 02:22:42;;;;;;;1.47;1.20;;;-3.70;72.60;;;;;;5013782;28;20213;-71
2022/03/20 02:25:10;;;;;;;3.03;1.70;;;-3.70;72.90;;;;;;5012521;28;20271;-71
2022/03/20 02:27:39;;;;;;;0.80;0.80;;;-3.70;72.10;;;;;;5014306;28;20207;-72
2022/03/20 02:30:15;;;;;;;0.63;0.60;;;-3.60;71.80;;;;;;5011526;28;20185;-70
2022/03/20 02:32:46;;;;;;;1.13;0.70;;;-3.60;71.40;;;;;;5009305;28;20184;-72
2022/03/20 02:35:16;;;;;;;0.67;0.67;;;-3.60;71.50;;;;;;5014413;28;20250;-70
2022/03/20 02:37:48;;;;;;;1.13;0.67;;;-3.50;71.00;;;;;;5011038;28;20570;-70
2022/03/20 02:40:16;;;;;;;0.73;0.73;;;-3.50;70.80;;;;;;5012652;28;20217;-70
2022/03/20 02:42:42;;;;;;;0.60;0.60;;;-3.50;70.80;;;;;;5009777;28;20198;-72
2022/03/20 02:45:16;;;;;;;3.20;1.17;;;-3.40;70.70;;;;;;5013203;28;20182;-71
2022/03/20 02:47:44;;;;;;;1.10;1.00;;;-3.40;70.90;;;;;;5012577;28;20183;-71
2022/03/20 02:50:17;;;;;;;0.80;0.80;;;-3.40;71.10;;;;;;5007830;28;20245;-71
2022/03/20 02:52:48;;;;;;;1.80;0.97;;;-3.40;71.20;;;;;;5013140;28;20191;-72
2022/03/20 02:55:16;;;;;;;1.00;1.00;;;-3.30;71.30;;;;;;5026679;28;20195;-70
2022/03/20 02:57:42;;;;;;;1.37;0.77;;;-3.30;71.30;;;;;;5013379;28;20196;-70
2022/03/20 03:00:10;;;;;;;3.63;1.23;;;-3.30;71.30;;;;;;5011672;28;20888;-70
2022/03/20 03:02:42;;;;;;;1.07;1.07;;;-3.30;71.30;;;;;;5003463;28;20185;-71
2022/03/20 03:05:08;;;;;;;0.97;0.93;;;-3.30;71.20;;;;;;5016801;28;20184;-71
2022/03/20 03:13:08;;;;;;;1.30;1.20;;;-3.20;70.90;;;;;;5012768;28;20212;-71
2022/03/20 03:15:33;;;;;;;1.10;1.00;;;-3.20;71.10;;;;;;5010432;28;20186;-71
2022/03/20 03:18:00;;;;;;;2.80;1.73;;;-3.20;71.30;;;;;;5010606;28;20177;-70
2022/03/20 03:20:26;;;;;;;3.50;1.33;;;-3.20;71.40;;;;;;5007097;28;20188;-70
2022/03/20 03:22:52;;;;;;;2.00;0.80;;;-3.20;71.40;;;;;;5013899;28;20193;-70
2022/03/20 03:25:18;;;;;;;0.67;0.67;;;-3.20;71.40;;;;;;5011303;28;20208;-70
2022/03/20 03:27:44;;;;;;;3.27;2.00;;;-3.20;71.30;;;;;;5014469;28;20217;-71
2022/03/20 03:30:12;;;;;;;1.10;1.10;;;-3.20;71.30;;;;;;5010103;28;20703;-70
2022/03/20 03:32:40;;;;;;;1.57;1.40;;;-3.20;71.30;;;;;;5014374;28;20179;-71
2022/03/20 03:37:56;;;;;;;0.87;0.83;;;-3.20;71.30;;;;;;5011558;28;20628;-72
2022/03/20 03:40:22;;;;;;;0.80;0.80;;;-3.20;71.30;;;;;;5009398;28;20264;-72
2022/03/20 03:42:48;;;;;;;2.07;1.87;;;-3.20;71.40;;;;;;5016438;28;20191;-72
2022/03/20 03:45:15;;;;;;;0.90;0.80;;;-3.30;71.40;;;;;;5012588;28;20589;-72
2022/03/20 03:47:41;;;;;;;1.30;1.20;;;-3.30;71.40;;;;;;5006156;28;20219;-72
2022/03/20 03:50:10;;;;;;;3.90;1.60;;;-3.30;71.80;;;;;;5010656;28;20208;-70
2022/03/20 03:52:37;;;;;;;2.53;2.33;;;-3.30;71.80;;;;;;5011335;28;20214;-70
2022/03/20 03:55:04;;;;;;;3.50;1.13;;;-3.30;71.90;;;;;;5008254;28;20177;-71
2022/03/20 03:57:31;;;;;;;1.03;1.03;;;-3.30;71.90;;;;;;5009196;28;20228;-70
2022/03/20 03:59:57;;;;;;;1.87;1.40;;;-3.30;71.90;;;;;;5010346;28;20209;-71
2022/03/20 04:02:23;;;;;;;1.00;1.00;;;-3.30;72.00;;;;;;5012146;28;20184;-71
2022/03/20 04:04:48;;;;;;;2.77;1.23;;;-3.30;72.20;;;;;;5013735;28;20264;-70
2022/03/20 04:07:18;;;;;;;1.37;1.27;;;-3.40;72.20;;;;;;5010525;28;20200;-70
2022/03/20 04:09:48;;;;;;;1.77;1.60;;;-3.40;72.20;;;;;;5008243;28;20591;-70
2022/03/20 04:12:13;;;;;;;3.37;1.50;;;-3.40;72.00;;;;;;5008611;28;20185;-71
2022/03/20 04:14:40;;;;;;;1.37;1.37;;;-3.50;72.00;;;;;;5013637;28;20192;-71
2022/03/20 04:17:06;;;;;;;1.47;1.37;;;-3.50;72.00;;;;;;5010708;28;20180;-71
2022/03/20 04:19:32;;;;;;;1.07;1.03;;;-3.50;72.00;;;;;;5013579;28;20219;-71
2022/03/20 04:21:59;;;;;;;1.73;1.63;;;-3.50;72.10;;;;;;5009086;28;20196;-71
2022/03/20 04:24:24;;;;;;;5.07;1.83;;;-3.50;72.10;;;;;;5009028;28;20192;-72
2022/03/20 04:26:50;;;;;;;1.80;1.80;;;-3.50;72.90;;;;;;5019132;28;20168;-71
2022/03/20 04:29:16;;;;;;;2.93;2.53;;;-3.60;73.40;;;;;;5015784;28;20198;-72
2022/03/20 04:31:42;;;;;;;2.73;2.30;;;-3.60;73.30;;;;;;5010150;28;20182;-71
2022/03/20 04:34:08;;;;;;;2.57;1.70;;;-3.70;73.50;;;;;;5009225;28;20184;-70
2022/03/20 04:36:36;;;;;;;4.13;2.57;;;-3.70;73.60;;;;;;5007560;28;20181;-70
2022/03/20 04:39:03;;;;;;;3.03;1.67;;;-3.70;73.60;;;;;;5010418;28;20216;-70
2022/03/20 04:41:29;;;;;;;3.80;1.83;;;-3.70;73.20;;;;;;5006595;28;20180;-70
2022/03/20 04:43:55;;;;;;;2.73;2.50;;;-3.70;73.60;;;;;;5009616;28;20180;-70
2022/03/20 04:46:20;;;;;;;2.43;2.27;;;-3.70;73.50;;;;;;5015911;28;20700;-71
2022/03/20 04:59:45;;;;;;;2.93;1.87;;;-3.70;73.40;;;;;;5014385;28;20239;-71
2022/03/20 05:02:11;;;;;;;1.53;1.43;;;-3.60;73.60;;;;;;5016047;28;20188;-72
2022/03/20 05:04:37;;;;;;;1.87;1.77;;;-3.60;73.50;;;;;;5009803;28;20279;-71
2022/03/20 05:07:04;;;;;;;1.87;1.73;;;-3.60;73.60;;;;;;5009357;28;20192;-71
2022/03/20 05:14:59;;;;;;;1.13;1.13;;;-3.50;73.40;;;;;;5011091;28;20263;-71
2022/03/20 05:17:24;;;;;;;2.17;1.37;;;-3.50;73.20;;;;;;5010401;28;20640;-70
2022/03/20 05:19:50;;;;;;;1.57;1.47;;;-3.40;73.20;;;;;;5013728;28;20222;-71
2022/03/20 05:22:16;;;;;;;2.30;1.30;;;-3.40;73.30;;;;;;5008556;28;20217;-72
2022/03/20 05:24:43;;;;;;;1.63;1.53;;;-3.30;73.60;;;;;;5009642;28;20573;-71
2022/03/20 05:27:09;;;;;;;3.13;1.93;;;-3.30;73.50;;;;;;5012610;28;20227;-72
2022/03/20 05:29:35;;;;;;;17.50;2.70;;;-3.30;73.60;;;;;;5013104;28;20186;-71
2022/03/20 05:32:03;;;;;;;1.93;1.73;;;-3.20;73.40;;;;;;5011268;28;20200;-71
2022/03/20 05:34:32;;;;;;;6.47;3.03;;;-3.20;73.20;;;;;;5004668;28;20219;-72
2022/03/20 05:36:59;;;;;;;1.83;1.20;;;-3.20;73.10;;;;;;5006529;28;20181;-71
2022/03/20 05:39:25;;;;;;;2.33;2.23;;;-3.10;73.00;;;;;;5009665;28;20216;-72
2022/03/20 05:41:51;;;;;;;2.10;2.00;;;-3.00;73.20;;;;;;5007820;28;20189;-71
2022/03/20 05:44:26;;;;;;;2.03;1.90;;;-3.00;73.10;;;;;;5013003;28;20192;-72
2022/03/20 05:46:53;;;;;;;1.57;1.57;;;-2.90;73.00;;;;;;5018084;28;20691;-71
2022/03/20 05:49:23;;;;;;;2.13;1.93;;;-2.90;73.20;;;;;;5016112;28;20218;-71
2022/03/20 05:51:50;;;;;;;7.50;2.03;;;-2.80;73.10;;;;;;5011001;28;20181;-71
2022/03/20 05:54:17;;;;;;;2.23;2.00;;;-2.70;72.90;;;;;;5020739;28;20181;-73
2022/03/20 05:59:28;;;;;;;1.63;1.53;;;-2.60;72.50;;;;;;5017045;28;20232;-71
2022/03/20 06:01:54;;;;;;;5.80;3.10;;;-2.60;72.10;;;;;;5017667;28;20181;-72
2022/03/20 06:04:21;;;;;;;2.00;1.90;;;-2.50;71.80;;;;;;5019402;28;20205;-73
2022/03/20 06:06:50;;;;;;;1.97;1.87;;;-2.50;71.60;;;;;;5009928;28;20717;-73
2022/03/20 06:09:16;;;;;;;4.10;2.57;;;-2.40;71.50;;;;;;5017346;28;20257;-75
2022/03/20 06:11:43;;;;;;;2.70;2.33;;;-2.40;71.50;;;;;;5013163;28;20320;-73
2022/03/20 06:14:09;;;;;;;1.83;1.73;;;-2.30;71.10;;;;;;5012018;28;20265;-73
2022/03/20 06:16:38;;;;;;;5.33;2.20;;;-2.30;71.10;;;;;;5019223;28;20578;-72
2022/03/20 06:19:08;;;;;;;3.10;2.90;;;-2.20;71.00;;;;;;5013380;28;20581;-72
2022/03/20 06:21:34;;;;;;;3.07;1.80;;;-2.20;71.00;;;;;;5014979;28;20916;-75
2022/03/20 06:24:00;;;;;;;3.00;2.17;;;-2.20;70.90;;;;;;5016182;28;20184;-72
2022/03/20 06:26:26;;;;;;;5.70;2.67;;;-2.10;71.00;;;;;;5021044;28;20213;-73
2022/03/20 06:28:53;;;;;;;2.73;1.70;;;-2.00;70.90;;;;;;5016337;28;20186;-73
2022/03/20 06:31:20;;;;;;;1.53;1.33;;;-1.90;70.80;;;;;;5017026;28;20193;-71
2022/03/20 06:33:46;;;;;;;2.23;2.13;;;-1.80;70.80;;;;;;5014930;28;20182;-72
2022/03/20 06:36:13;;;;;;;1.93;1.70;;;-1.80;70.50;;;;;;5013300;28;20265;-71
2022/03/20 06:38:39;;;;;;;5.70;2.20;;;-1.70;70.00;;;;;;5013821;28;20215;-72
2022/03/20 06:41:06;;;;;;;1.83;1.70;;;-1.60;69.70;;;;;;5008120;28;20228;-71
2022/03/20 06:43:36;;;;;;;2.10;1.40;;;-1.50;69.60;;;;;;5012887;28;20180;-72
2022/03/20 06:46:04;;;;;;;3.33;1.87;;;-1.40;69.40;;;;;;5013578;28;20179;-73
2022/03/20 06:48:29;;;;;;;2.10;1.67;;;-1.30;69.10;;;;;;5014361;28;20183;-71
2022/03/20 06:50:55;;;;;;;1.43;0.90;;;-1.20;68.80;;;;;;5008270;28;20288;-73
2022/03/20 06:53:21;;;;;;;1.47;1.07;;;-1.10;68.30;;;;;;5016624;28;20183;-73
2022/03/20 06:55:48;;;;;;;2.87;1.57;;;-1.00;68.10;;;;;;5009979;28;20184;-73
2022/03/20 06:58:15;;;;;;;1.90;1.80;;;-0.90;68.10;;;;;;5018750;28;20179;-73
2022/03/20 07:00:41;;;;;;;1.00;0.97;;;-0.80;67.60;;;;;;5011028;28;20200;-72
2022/03/20 07:03:08;;;;;;;3.97;2.03;;;-0.70;67.00;;;;;;5015686;28;21015;-73
2022/03/20 07:05:35;;;;;;;1.17;1.13;;;-0.60;66.60;;;;;;5016838;28;20261;-73
2022/03/20 07:08:02;;;;;;;1.13;1.00;;;-0.60;66.60;;;;;;5013514;28;20185;-73
2022/03/20 07:10:28;;;;;;;1.33;1.20;;;-0.50;66.30;;;;;;5014754;28;20800;-73
2022/03/20 07:15:44;;;;;;;1.17;1.17;;;-0.30;66.20;;;;;;5014735;28;20275;-71
2022/03/20 07:18:12;;;;;;;1.37;1.27;;;-0.20;65.60;;;;;;5007837;28;20185;-71
2022/03/20 07:20:38;;;;;;;0.87;0.87;;;-0.10;65.40;;;;;;5011207;28;20303;-73
2022/03/20 07:23:09;;;;;;;5.20;1.50;;;0.00;65.40;;;;;;5008075;28;20199;-73
2022/03/20 07:31:05;;;;;;;4.30;1.17;;;0.20;64.80;;;;;;5014069;28;20216;-71
2022/03/20 07:33:30;;;;;;;1.40;1.40;;;0.30;64.60;;;;;;5010235;28;20188;-72
2022/03/20 07:35:58;;;;;;;1.23;1.23;;;0.40;64.20;;;;;;5007479;28;20177;-73
2022/03/20 07:38:24;;;;;;;3.17;1.60;;;0.50;63.80;;;;;;5010361;28;20259;-73
2022/03/20 07:40:50;;;;;;;1.97;1.87;;;0.70;63.90;;;;;;5007758;28;20173;-72
2022/03/20 07:43:16;;;;;;;3.43;1.60;;;0.70;63.00;;;;;;5013328;28;20233;-72
2022/03/20 07:45:41;;;;;;;4.43;2.03;;;0.80;62.70;;;;;;5013602;28;20955;-73
2022/03/20 07:48:07;;;;;;;1.73;1.67;;;0.90;63.20;;;;;;5004854;28;20185;-73
2022/03/20 07:50:34;;;;;;;4.73;2.20;;;1.00;62.80;;;;;;5010028;28;20220;-72
2022/03/20 07:53:00;;;;;;;1.23;1.23;;;1.10;62.70;;;;;;5008379;28;20620;-71
2022/03/20 07:55:28;;;;;;;1.80;1.70;;;1.20;61.80;;;;;;5011437;28;20224;-70
2022/03/20 07:57:55;;;;;;;2.40;1.80;;;1.30;61.80;;;;;;5010671;28;20173;-71
2022/03/20 08:00:22;;;;;;;2.03;1.90;;;1.40;60.60;;;;;;5010852;28;20223;-71
2022/03/20 08:02:48;;;;;;;4.13;1.70;;;1.40;60.30;;;;;;5012126;28;20184;-70
2022/03/20 08:05:14;;;;;;;2.17;2.07;;;1.50;60.70;;;;;;5008448;28;20193;-70
2022/03/20 08:07:40;;;;;;;1.80;1.80;;;1.50;59.80;;;;;;5008468;28;20210;-70
2022/03/20 08:10:07;;;;;;;2.07;1.97;;;1.70;60.30;;;;;;5005032;28;20195;-72
2022/03/20 08:12:33;;;;;;;1.67;1.57;;;1.80;60.90;;;;;;5007626;28;21518;-73
2022/03/20 08:14:59;;;;;;;3.80;1.93;;;2.10;60.80;;;;;;5010839;28;20218;-73
2022/03/20 08:17:25;;;;;;;4.23;2.20;;;2.50;60.20;;;;;;5008947;28;20697;-72
2022/03/20 08:19:50;;;;;;;1.77;1.67;;;2.90;59.60;;;;;;5006920;28;20606;-72
2022/03/20 08:22:16;;;;;;;2.37;2.23;;;3.50;57.90;;;;;;5008755;28;20184;-72
2022/03/20 08:24:44;;;;;;;1.60;1.60;;;4.10;57.70;;;;;;5014267;28;20180;-70
2022/03/20 08:27:11;;;;;;;4.37;1.93;;;4.70;56.00;;;;;;5010740;28;20267;-68
2022/03/20 08:29:36;;;;;;;1.90;1.80;;;5.30;55.10;;;;;;5013949;28;20332;-70
2022/03/20 08:32:02;;;;;;;2.30;2.10;;;6.00;54.00;;;;;;5008954;28;20763;-70
2022/03/20 08:34:28;;;;;;;2.50;2.30;;;6.80;53.00;;;;;;5009280;28;20746;-70
2022/03/20 08:36:54;;;;;;;2.10;2.00;;;7.30;50.50;;;;;;5013553;28;20611;-71
2022/03/20 08:39:20;;;;;;;3.00;2.77;;;7.80;50.10;;;;;;5008221;28;20219;-71
2022/03/20 08:41:47;;;;;;;6.47;2.30;;;8.30;50.00;;;;;;5013771;28;20636;-71
2022/03/20 08:44:14;;;;;;;3.00;2.80;;;9.10;50.40;;;;;;5012193;28;20177;-71
2022/03/20 08:46:39;;;;;;;3.20;2.90;;;9.90;48.80;;;;;;5008755;28;20177;-70
2022/03/20 08:49:09;;;;;;;3.03;2.77;;;10.40;47.60;;;;;;5006411;28;20579;-70
2022/03/20 08:51:38;;;;;;;3.07;2.80;;;10.90;46.90;;;;;;5003267;28;20184;-69
2022/03/20 08:54:03;;;;;;;2.97;2.77;;;11.60;47.00;;;;;;5005376;28;20183;-70
2022/03/20 08:56:29;;;;;;;2.47;2.27;;;12.50;46.90;;;;;;5002218;28;20172;-70
2022/03/20 08:58:56;;;;;;;2.97;2.77;;;13.10;44.80;;;;;;5008630;28;20299;-69
2022/03/20 09:01:22;;;;;;;3.20;3.00;;;13.80;44.40;;;;;;5007410;28;20235;-70
2022/03/20 09:03:50;;;;;;;2.58;2.40;;;14.50;43.50;;;;;;5008488;28;20828;-70
2022/03/20 09:06:19;;;;;;;3.55;3.22;;;15.10;43.10;;;;;;5010210;28;20585;-69
2022/03/20 09:08:48;;;;;;;3.15;2.88;;;15.80;43.00;;;;;;5010738;28;20270;-71
2022/03/20 09:11:14;;;;;;;3.05;2.85;;;16.50;42.30;;;;;;5011166;28;20176;-71
2022/03/20 09:13:40;;;;;;;2.92;2.78;;;17.00;41.30;;;;;;5012357;28;20185;-70
2022/03/20 09:18:59;;;;;;;2.55;2.45;;;17.80;39.50;;;;;;5013876;28;20282;-70
2022/03/20 09:21:29;;;;;;;2.80;2.60;;;18.30;39.50;;;;;;5017161;28;20165;-70
2022/03/20 09:23:55;;;;;;;2.83;2.63;;;18.80;39.40;;;;;;5019897;28;20697;-69
2022/03/20 09:26:21;;;;;;;3.67;3.38;;;19.30;38.10;;;;;;5015432;28;20651;-69
2022/03/20 09:28:47;;;;;;;3.28;2.97;;;19.50;37.30;;;;;;5014746;28;20208;-71
2022/03/20 09:31:15;;;;;;;3.15;3.05;;;19.80;37.90;;;;;;5016740;28;20690;-69
2022/03/20 09:33:41;;;;;;;3.95;3.60;;;20.20;37.40;;;;;;5015084;28;20686;-70
2022/03/20 09:36:07;;;;;;;3.65;3.15;;;20.50;38.20;;;;;;5017741;28;20184;-70
2022/03/20 09:38:34;;;;;;;3.30;3.00;;;20.90;36.30;;;;;;5015889;28;20870;-71
2022/03/20 09:41:03;;;;;;;2.97;2.78;;;21.10;37.30;;;;;;5011216;28;20265;-71
2022/03/20 09:43:31;;;;;;;3.47;2.80;;;21.50;36.90;;;;;;5013920;28;20259;-71
2022/03/20 09:45:57;;;;;;;2.78;2.63;;;21.80;36.10;;;;;;5016905;28;20169;-72
2022/03/20 09:48:23;;;;;;;2.53;2.33;;;22.20;36.70;;;;;;5018447;28;20191;-71
2022/03/20 09:50:49;;;;;;;4.63;3.40;;;22.60;36.10;;;;;;5018441;28;20181;-72
2022/03/20 09:53:15;;;;;;;3.13;2.90;;;22.90;36.60;;;;;;5014028;28;20331;-71
2022/03/20 09:55:42;;;;;;;2.78;2.67;;;23.20;35.60;;;;;;5011578;28;20748;-72
2022/03/20 09:58:08;;;;;;;2.70;2.60;;;23.40;34.70;;;;;;5019210;28;20173;-72
2022/03/20 10:00:34;;;;;;;2.60;2.45;;;23.30;34.70;;;;;;5014788;28;20277;-71
2022/03/20 10:03:15;;;;;;;3.13;2.47;;;23.10;35.60;;;;;;5019412;28;20188;-71
2022/03/20 10:05:40;;;;;;;2.75;2.65;;;23.20;33.90;;;;;;5013762;28;20196;-71
2022/03/20 10:08:17;;;;;;;2.40;2.30;;;23.20;34.80;;;;;;5017957;28;20176;-72
2022/03/20 10:10:43;;;;;;;2.33;2.22;;;23.30;34.70;;;;;;5016914;28;20199;-71
2022/03/20 10:13:14;;;;;;;2.08;1.98;;;23.40;34.00;;;;;;5014974;28;20176;-71
2022/03/20 10:15:42;;;;;;;2.70;2.22;;;23.50;33.10;;;;;;5017468;28;20579;-70
2022/03/20 10:18:23;;;;;;;4.38;2.38;;;23.00;33.10;;;;;;5013317;28;20181;-72
2022/03/20 10:20:59;;;;;;;2.92;2.75;;;22.30;34.00;;;;;;5010565;28;20193;-71
2022/03/20 10:23:37;;;;;;;2.90;2.70;;;21.70;33.10;;;;;;5016598;28;20180;-72
2022/03/20 10:26:05;;;;;;;2.30;2.20;;;21.20;35.90;;;;;;5008115;28;20271;-71
2022/03/20 10:28:49;;;;;;;2.70;2.50;;;21.60;35.10;;;;;;5011778;28;20181;-71
2022/03/20 10:31:20;;;;;;;2.40;2.28;;;22.30;33.90;;;;;;5010781;28;20924;-71
2022/03/20 10:34:07;;;;;;;3.15;3.00;;;22.80;33.20;;;;;;5004508;28;20706;-71
2022/03/20 10:36:36;;;;;;;2.17;2.08;;;22.80;31.60;;;;;;5001696;28;20220;-72
2022/03/20 10:39:02;;;;;;;4.30;2.78;;;22.10;35.00;;;;;;5008859;28;20256;-70
2022/03/20 10:41:34;;;;;;;2.83;2.63;;;22.00;33.80;;;;;;5003139;28;20189;-70
2022/03/20 10:44:01;;;;;;;2.58;2.47;;;22.20;35.10;;;;;;5005477;28;20185;-71
2022/03/20 10:46:29;;;;;;;3.00;2.80;;;22.60;35.10;;;;;;5007094;28;20428;-71
2022/03/20 10:48:58;;;;;;;2.63;2.53;;;23.00;33.10;;;;;;5010141;28;20670;-71
2022/03/20 10:51:40;;;;;;;2.67;2.47;;;23.40;33.70;;;;;;5016797;28;20697;-71
2022/03/20 10:54:12;;;;;;;2.47;2.38;;;23.70;33.60;;;;;;5010110;28;20578;-70
2022/03/20 10:56:56;;;;;;;2.38;2.28;;;23.70;32.00;;;;;;5008224;28;20578;-71
2022/03/20 10:59:22;;;;;;;2.40;2.30;;;23.20;32.20;;;;;;5014409;28;20220;-70
2022/03/20 11:01:48;;;;;;;2.90;2.70;;;23.30;33.70;;;;;;5008704;28;20184;-72
2022/03/20 11:04:17;;;;;;;2.90;2.60;;;23.60;33.50;;;;;;5006466;28;20307;-71
2022/03/20 11:06:45;;;;;;;2.47;2.38;;;23.60;31.80;;;;;;5006804;28;20207;-72
2022/03/20 11:09:11;;;;;;;2.83;2.65;;;23.00;32.30;;;;;;5006876;28;20185;-71
2022/03/20 11:11:56;;;;;;;2.83;2.63;;;22.00;33.10;;;;;;5005975;28;20991;-71
2022/03/20 11:14:25;;;;;;;2.40;2.30;;;22.00;33.60;;;;;;5006466;28;20193;-71
2022/03/20 11:17:02;;;;;;;2.65;2.55;;;22.20;34.50;;;;;;5009878;28;20195;-70
2022/03/20 11:19:30;;;;;;;2.70;2.60;;;22.50;34.40;;;;;;5008070;28;20214;-71
2022/03/20 11:22:09;;;;;;;2.80;2.70;;;22.70;33.20;;;;;;5008765;28;20188;-70
2022/03/20 11:24:37;;;;;;;3.05;2.85;;;22.50;31.90;;;;;;5010424;28;20583;-68
2022/03/20 11:27:04;;;;;;;3.03;2.83;;;21.60;32.50;;;;;;5007900;28;20251;-70
2022/03/20 11:29:52;;;;;;;3.08;2.65;;;20.90;33.30;;;;;;5006975;28;20242;-68
2022/03/20 11:32:18;;;;;;;3.63;2.67;;;20.90;33.80;;;;;;5038370;28;20655;-70
2022/03/20 11:34:46;;;;;;;2.63;2.53;;;21.20;33.70;;;;;;5036508;28;21049;-72
2022/03/20 11:37:16;;;;;;;3.10;2.90;;;21.50;32.80;;;;;;5038980;28;20313;-71
2022/03/20 11:40:13;;;;;;;3.05;2.95;;;21.10;34.80;;;;;;5038743;28;20243;-70
2022/03/20 11:42:40;;;;;;;2.72;2.63;;;21.30;33.80;;;;;;5038731;28;20192;-69
2022/03/20 11:45:06;;;;;;;2.92;2.83;;;21.10;33.20;;;;;;5038109;28;20232;-69
2022/03/20 11:47:34;;;;;;;4.38;3.20;;;20.40;33.00;;;;;;5039168;28;20754;-69
2022/03/20 11:50:16;;;;;;;3.08;2.97;;;19.40;33.70;;;;;;5038277;28;20298;-69
2022/03/20 11:53:00;;;;;;;2.45;2.35;;;19.00;34.00;;;;;;5037189;28;20183;-70
2022/03/20 11:55:32;;;;;;;2.83;2.72;;;19.30;35.10;;;;;;5022244;28;20199;-68
2022/03/20 11:58:32;;;;;;;2.55;2.35;;;19.30;35.20;;;;;;5039898;28;20194;-68
2022/03/20 12:01:03;;;;;;;2.30;2.20;;;19.50;34.40;;;;;;5036995;28;20902;-68
2022/03/20 12:03:43;;;;;;;2.97;2.78;;;20.00;34.90;;;;;;5038265;28;20192;-68
2022/03/20 12:06:39;;;;;;;3.08;2.30;;;20.60;33.90;;;;;;5038596;28;20218;-69
2022/03/20 12:09:17;;;;;;;2.70;2.55;;;21.20;33.50;;;;;;5025686;28;20310;-68
2022/03/20 12:12:09;;;;;;;2.72;2.58;;;21.30;33.70;;;;;;5008261;28;20268;-70
2022/03/20 12:14:40;;;;;;;2.13;2.03;;;21.40;33.20;;;;;;5007690;28;20189;-73
2022/03/20 12:17:07;;;;;;;2.70;2.20;;;21.60;34.00;;;;;;5012118;28;20235;-74
2022/03/20 12:19:44;;;;;;;3.33;2.28;;;21.70;33.40;;;;;;5010112;28;20223;-72
2022/03/20 12:22:30;;;;;;;3.33;2.75;;;21.80;33.60;;;;;;5013734;28;20180;-71
2022/03/20 12:24:58;;;;;;;2.78;2.17;;;22.10;32.80;;;;;;5014443;28;20187;-72
2022/03/20 12:27:24;;;;;;;2.72;2.58;;;22.30;32.70;;;;;;5012005;28;20198;-74
2022/03/20 12:29:53;;;;;;;2.58;2.47;;;22.50;32.40;;;;;;5007577;28;20189;-69
2022/03/20 12:33:02;;;;;;;2.78;2.30;;;22.60;33.10;;;;;;5011223;28;20291;-71
2022/03/20 12:35:40;;;;;;;2.60;2.50;;;22.70;32.50;;;;;;5024989;28;20188;-72
2022/03/20 12:38:05;;;;;;;2.03;1.98;;;23.00;32.60;;;;;;5017782;28;20180;-72
2022/03/20 12:40:38;;;;;;;2.95;2.75;;;23.10;32.50;;;;;;5020524;28;20718;-72
2022/03/20 12:43:10;;;;;;;2.17;2.17;;;23.10;32.60;;;;;;5018041;28;20192;-72
2022/03/20 12:45:41;;;;;;;2.50;2.40;;;23.20;31.70;;;;;;5015161;28;20672;-72
2022/03/20 12:48:15;;;;;;;2.65;2.55;;;23.20;31.60;;;;;;5015782;28;20184;-72
2022/03/20 12:50:49;;;;;;;2.75;2.55;;;22.90;33.10;;;;;;5019268;28;20238;-72
2022/03/20 12:53:16;;;;;;;2.83;2.63;;;22.50;31.90;;;;;;5016035;28;20207;-73
2022/03/20 12:55:49;;;;;;;2.40;2.40;;;22.40;33.00;;;;;;5019154;28;20219;-73
2022/03/20 12:58:18;;;;;;;2.60;2.50;;;22.50;32.50;;;;;;5020203;28;20215;-72
2022/03/20 13:00:44;;;;;;;2.42;2.33;;;22.60;31.90;;;;;;5022703;28;20233;-73
2022/03/20 13:03:15;;;;;;;2.85;2.65;;;22.30;32.20;;;;;;5020277;28;20329;-72
2022/03/20 13:05:49;;;;;;;2.53;2.33;;;22.20;33.10;;;;;;5020805;28;20212;-72
2022/03/20 13:08:26;;;;;;;2.05;1.95;;;22.00;33.00;;;;;;5021050;28;20180;-73
2022/03/20 13:10:55;;;;;;;2.60;2.50;;;21.50;32.80;;;;;;5019882;28;20279;-76
2022/03/20 13:13:27;;;;;;;2.30;2.30;;;20.80;34.00;;;;;;5010642;28;20204;-73
2022/03/20 13:15:53;;;;;;;3.22;2.97;;;20.50;34.10;;;;;;5006273;28;20264;-73
2022/03/20 13:18:24;;;;;;;2.35;2.25;;;20.50;33.70;;;;;;5007677;28;20267;-73
2022/03/20 13:20:50;;;;;;;4.82;1.95;;;20.60;33.30;;;;;;5010777;28;20247;-73
2022/03/20 13:23:22;;;;;;;2.50;2.40;;;20.90;33.80;;;;;;5008339;28;20184;-73
2022/03/20 13:25:53;;;;;;;2.88;2.67;;;21.20;33.20;;;;;;5010741;28;20768;-73
2022/03/20 13:28:28;;;;;;;2.33;2.25;;;21.50;33.30;;;;;;5013538;28;20885;-73
2022/03/20 13:31:03;;;;;;;2.60;2.50;;;21.50;32.90;;;;;;5007511;28;20242;-73
2022/03/20 13:33:34;;;;;;;2.40;2.30;;;21.40;32.30;;;;;;5011303;28;20180;-73